Search for airport 
image banner adimage banner adimage banner ad
image banner ad

CA38 - Totem Pole Ranch

Located in Calpine, United States

ICAO - CA38, IATA -

Data provided by Airmate  

General information

Coordinates: N39°39'5" W120°26'19"
Elevation is 4986 feet MSL.
Magnetic variation is 16° East
View others Airports in California

Operational data

Special qualification required
Current time UTC:
Current local time:
Weather at : KTRK - Truckee-Tahoe ( 45 km )
METAR: KTRK 211235Z AUTO 00000KT 10SM CLR 06/00 A3020 RMK AO2
TAF: KTRK 211132Z 2112/2212 00000KT P6SM FEW130 FM211800 24009KT P6SM FEW130 FM212100 25014G22KT P6SM SCT130 FM220400 VRB03KT P6SM BKN130
View NOTAMs / SUP AIP / TFR affecting this airport [VIEW]
Communications frequencies: [VIEW]

Runways:

RWY identifierQFULength (ft)Width (ft)SurfaceLDA (ft)
021800100EARTH
201800100EARTH

Airport contact information

Address: Calpine United States

Satellite view of CA38